sensor_id;sensor_type;location;lat;lon;timestamp;P1;durP1;ratioP1;P2;durP2;ratioP2
68315;SDS011;55508;54.368;18.406;2023-04-24T00:01:13;24.10;;;21.67;;
68315;SDS011;55508;54.368;18.406;2023-04-24T00:03:39;24.80;;;22.30;;
68315;SDS011;55508;54.368;18.406;2023-04-24T00:06:07;23.55;;;21.35;;
68315;SDS011;55508;54.368;18.406;2023-04-24T00:08:35;23.40;;;21.20;;
68315;SDS011;55508;54.368;18.406;2023-04-24T00:11:02;24.77;;;22.27;;
68315;SDS011;55508;54.368;18.406;2023-04-24T00:13:29;23.60;;;21.30;;
68315;SDS011;55508;54.368;18.406;2023-04-24T00:15:56;25.38;;;22.95;;
68315;SDS011;55508;54.368;18.406;2023-04-24T00:18:23;21.80;;;19.70;;
68315;SDS011;55508;54.368;18.406;2023-04-24T00:20:50;22.30;;;20.15;;
68315;SDS011;55508;54.368;18.406;2023-04-24T00:23:17;22.00;;;19.55;;
68315;SDS011;55508;54.368;18.406;2023-04-24T00:25:44;21.13;;;19.15;;
68315;SDS011;55508;54.368;18.406;2023-04-24T00:28:11;21.65;;;19.30;;
68315;SDS011;55508;54.368;18.406;2023-04-24T00:30:38;19.92;;;18.13;;
68315;SDS011;55508;54.368;18.406;2023-04-24T00:33:05;20.33;;;18.60;;
68315;SDS011;55508;54.368;18.406;2023-04-24T00:35:32;22.63;;;19.20;;
68315;SDS011;55508;54.368;18.406;2023-04-24T00:37:58;19.02;;;17.33;;
68315;SDS011;55508;54.368;18.406;2023-04-24T00:40:26;20.88;;;19.05;;
68315;SDS011;55508;54.368;18.406;2023-04-24T00:42:53;22.50;;;20.42;;
68315;SDS011;55508;54.368;18.406;2023-04-24T00:45:20;30.55;;;27.27;;
68315;SDS011;55508;54.368;18.406;2023-04-24T00:47:47;41.28;;;34.67;;
68315;SDS011;55508;54.368;18.406;2023-04-24T00:50:15;56.60;;;43.67;;
68315;SDS011;55508;54.368;18.406;2023-04-24T00:52:42;58.40;;;45.03;;
68315;SDS011;55508;54.368;18.406;2023-04-24T00:55:09;68.22;;;48.28;;
68315;SDS011;55508;54.368;18.406;2023-04-24T00:57:37;63.97;;;45.88;;
68315;SDS011;55508;54.368;18.406;2023-04-24T01:00:05;65.05;;;48.75;;
68315;SDS011;55508;54.368;18.406;2023-04-24T01:02:40;67.30;;;48.28;;
68315;SDS011;55508;54.368;18.406;2023-04-24T01:05:11;67.97;;;48.90;;
68315;SDS011;55508;54.368;18.406;2023-04-24T01:07:40;68.30;;;49.25;;
68315;SDS011;55508;54.368;18.406;2023-04-24T01:10:10;66.78;;;49.25;;
68315;SDS011;55508;54.368;18.406;2023-04-24T01:12:38;78.22;;;49.65;;
68315;SDS011;55508;54.368;18.406;2023-04-24T01:15:05;70.00;;;49.15;;
68315;SDS011;55508;54.368;18.406;2023-04-24T01:17:34;72.38;;;50.08;;
68315;SDS011;55508;54.368;18.406;2023-04-24T01:20:01;67.20;;;46.50;;
68315;SDS011;55508;54.368;18.406;2023-04-24T01:22:33;72.15;;;48.55;;
68315;SDS011;55508;54.368;18.406;2023-04-24T01:25:01;71.63;;;45.65;;
68315;SDS011;55508;54.368;18.406;2023-04-24T01:27:29;69.57;;;44.42;;
68315;SDS011;55508;54.368;18.406;2023-04-24T01:29:56;74.80;;;47.13;;
68315;SDS011;55508;54.368;18.406;2023-04-24T01:32:23;81.75;;;50.50;;
68315;SDS011;55508;54.368;18.406;2023-04-24T01:34:50;86.40;;;51.65;;
68315;SDS011;55508;54.368;18.406;2023-04-24T01:37:17;92.75;;;56.38;;
68315;SDS011;55508;54.368;18.406;2023-04-24T01:39:44;98.03;;;56.95;;
68315;SDS011;55508;54.368;18.406;2023-04-24T01:42:12;104.03;;;58.40;;
68315;SDS011;55508;54.368;18.406;2023-04-24T01:44:39;108.57;;;61.45;;
68315;SDS011;55508;54.368;18.406;2023-04-24T01:47:07;103.70;;;59.45;;
68315;SDS011;55508;54.368;18.406;2023-04-24T01:49:34;107.65;;;59.88;;
68315;SDS011;55508;54.368;18.406;2023-04-24T01:52:01;105.88;;;60.72;;
68315;SDS011;55508;54.368;18.406;2023-04-24T01:54:29;113.65;;;61.20;;
68315;SDS011;55508;54.368;18.406;2023-04-24T01:56:56;108.32;;;61.13;;
68315;SDS011;55508;54.368;18.406;2023-04-24T01:59:23;116.20;;;62.50;;
68315;SDS011;55508;54.368;18.406;2023-04-24T02:01:51;115.88;;;62.92;;
68315;SDS011;55508;54.368;18.406;2023-04-24T02:04:18;114.50;;;64.00;;
68315;SDS011;55508;54.368;18.406;2023-04-24T02:06:46;113.60;;;60.10;;
68315;SDS011;55508;54.368;18.406;2023-04-24T02:09:13;118.47;;;60.70;;
68315;SDS011;55508;54.368;18.406;2023-04-24T02:11:40;123.90;;;63.15;;
68315;SDS011;55508;54.368;18.406;2023-04-24T02:14:07;119.82;;;62.78;;
68315;SDS011;55508;54.368;18.406;2023-04-24T02:16:34;126.65;;;64.50;;
68315;SDS011;55508;54.368;18.406;2023-04-24T02:19:02;121.22;;;62.05;;
68315;SDS011;55508;54.368;18.406;2023-04-24T02:21:30;116.70;;;58.75;;
68315;SDS011;55508;54.368;18.406;2023-04-24T02:23:58;122.93;;;60.08;;
68315;SDS011;55508;54.368;18.406;2023-04-24T02:26:25;107.28;;;50.53;;
68315;SDS011;55508;54.368;18.406;2023-04-24T02:28:52;99.63;;;45.95;;
68315;SDS011;55508;54.368;18.406;2023-04-24T02:31:19;87.35;;;42.92;;
68315;SDS011;55508;54.368;18.406;2023-04-24T02:33:47;114.28;;;46.45;;
68315;SDS011;55508;54.368;18.406;2023-04-24T02:36:14;159.43;;;40.90;;
68315;SDS011;55508;54.368;18.406;2023-04-24T02:38:41;143.52;;;45.47;;
68315;SDS011;55508;54.368;18.406;2023-04-24T02:41:07;135.27;;;43.50;;
68315;SDS011;55508;54.368;18.406;2023-04-24T02:43:34;127.82;;;47.80;;
68315;SDS011;55508;54.368;18.406;2023-04-24T02:46:01;147.73;;;48.80;;
68315;SDS011;55508;54.368;18.406;2023-04-24T02:48:29;163.05;;;55.20;;
68315;SDS011;55508;54.368;18.406;2023-04-24T02:50:56;176.50;;;52.90;;
68315;SDS011;55508;54.368;18.406;2023-04-24T02:53:24;259.20;;;49.22;;
68315;SDS011;55508;54.368;18.406;2023-04-24T02:55:51;219.68;;;47.38;;
68315;SDS011;55508;54.368;18.406;2023-04-24T02:58:18;211.70;;;48.63;;
68315;SDS011;55508;54.368;18.406;2023-04-24T03:00:46;171.55;;;43.78;;
68315;SDS011;55508;54.368;18.406;2023-04-24T03:03:13;220.90;;;45.53;;
68315;SDS011;55508;54.368;18.406;2023-04-24T03:05:41;154.98;;;45.50;;
68315;SDS011;55508;54.368;18.406;2023-04-24T03:08:08;212.13;;;44.95;;
68315;SDS011;55508;54.368;18.406;2023-04-24T03:10:36;190.43;;;47.90;;
68315;SDS011;55508;54.368;18.406;2023-04-24T03:13:04;234.52;;;48.67;;
68315;SDS011;55508;54.368;18.406;2023-04-24T03:15:33;148.63;;;45.83;;
68315;SDS011;55508;54.368;18.406;2023-04-24T03:18:00;156.23;;;46.75;;
68315;SDS011;55508;54.368;18.406;2023-04-24T03:20:28;171.63;;;46.78;;
68315;SDS011;55508;54.368;18.406;2023-04-24T03:22:56;137.48;;;44.45;;
68315;SDS011;55508;54.368;18.406;2023-04-24T03:25:24;143.50;;;45.60;;
68315;SDS011;55508;54.368;18.406;2023-04-24T03:27:51;111.88;;;40.95;;
68315;SDS011;55508;54.368;18.406;2023-04-24T03:30:32;104.57;;;39.83;;
68315;SDS011;55508;54.368;18.406;2023-04-24T03:33:00;124.75;;;41.17;;
68315;SDS011;55508;54.368;18.406;2023-04-24T03:35:31;122.43;;;41.65;;
68315;SDS011;55508;54.368;18.406;2023-04-24T03:38:01;158.07;;;43.90;;
68315;SDS011;55508;54.368;18.406;2023-04-24T03:40:50;176.73;;;43.80;;
68315;SDS011;55508;54.368;18.406;2023-04-24T03:43:37;152.15;;;44.20;;
68315;SDS011;55508;54.368;18.406;2023-04-24T03:46:05;125.95;;;41.83;;
68315;SDS011;55508;54.368;18.406;2023-04-24T03:51:05;108.82;;;36.60;;
68315;SDS011;55508;54.368;18.406;2023-04-24T03:53:34;111.13;;;39.85;;
68315;SDS011;55508;54.368;18.406;2023-04-24T03:56:02;116.55;;;40.97;;
68315;SDS011;55508;54.368;18.406;2023-04-24T03:58:31;126.70;;;44.00;;
68315;SDS011;55508;54.368;18.406;2023-04-24T04:00:59;120.57;;;43.00;;
68315;SDS011;55508;54.368;18.406;2023-04-24T04:03:44;137.52;;;46.00;;
68315;SDS011;55508;54.368;18.406;2023-04-24T04:06:15;123.10;;;45.85;;
68315;SDS011;55508;54.368;18.406;2023-04-24T04:08:42;114.45;;;43.55;;
68315;SDS011;55508;54.368;18.406;2023-04-24T04:11:09;138.07;;;46.92;;
68315;SDS011;55508;54.368;18.406;2023-04-24T04:13:36;130.82;;;46.72;;
68315;SDS011;55508;54.368;18.406;2023-04-24T04:16:03;141.73;;;47.85;;
68315;SDS011;55508;54.368;18.406;2023-04-24T04:18:30;110.88;;;43.13;;
68315;SDS011;55508;54.368;18.406;2023-04-24T04:20:57;98.45;;;39.90;;
68315;SDS011;55508;54.368;18.406;2023-04-24T04:23:25;84.97;;;34.45;;
68315;SDS011;55508;54.368;18.406;2023-04-24T04:26:12;69.03;;;32.47;;
68315;SDS011;55508;54.368;18.406;2023-04-24T04:28:59;67.85;;;31.70;;
68315;SDS011;55508;54.368;18.406;2023-04-24T04:31:32;73.28;;;32.88;;
68315;SDS011;55508;54.368;18.406;2023-04-24T04:34:04;66.20;;;31.02;;
68315;SDS011;55508;54.368;18.406;2023-04-24T04:36:33;76.45;;;33.65;;
68315;SDS011;55508;54.368;18.406;2023-04-24T04:39:23;66.97;;;30.88;;
68315;SDS011;55508;54.368;18.406;2023-04-24T04:41:56;68.35;;;31.75;;
68315;SDS011;55508;54.368;18.406;2023-04-24T04:44:28;69.05;;;32.03;;
68315;SDS011;55508;54.368;18.406;2023-04-24T04:46:58;69.65;;;31.77;;
68315;SDS011;55508;54.368;18.406;2023-04-24T04:49:30;64.68;;;32.28;;
68315;SDS011;55508;54.368;18.406;2023-04-24T04:51:58;63.03;;;31.95;;
68315;SDS011;55508;54.368;18.406;2023-04-24T04:54:26;61.20;;;31.40;;
68315;SDS011;55508;54.368;18.406;2023-04-24T04:56:55;68.15;;;32.30;;
68315;SDS011;55508;54.368;18.406;2023-04-24T04:59:23;58.78;;;31.02;;
68315;SDS011;55508;54.368;18.406;2023-04-24T05:01:57;66.80;;;32.97;;
68315;SDS011;55508;54.368;18.406;2023-04-24T05:04:24;63.17;;;32.08;;
68315;SDS011;55508;54.368;18.406;2023-04-24T05:06:51;62.67;;;33.42;;
68315;SDS011;55508;54.368;18.406;2023-04-24T05:09:20;61.75;;;33.28;;
68315;SDS011;55508;54.368;18.406;2023-04-24T05:11:52;59.53;;;31.88;;
68315;SDS011;55508;54.368;18.406;2023-04-24T05:14:20;57.53;;;31.13;;
68315;SDS011;55508;54.368;18.406;2023-04-24T05:16:48;62.35;;;32.25;;
68315;SDS011;55508;54.368;18.406;2023-04-24T05:19:17;55.80;;;32.88;;
68315;SDS011;55508;54.368;18.406;2023-04-24T05:21:45;51.88;;;30.52;;
68315;SDS011;55508;54.368;18.406;2023-04-24T05:24:12;52.97;;;31.20;;
68315;SDS011;55508;54.368;18.406;2023-04-24T05:26:56;50.75;;;30.33;;
68315;SDS011;55508;54.368;18.406;2023-04-24T05:29:31;48.20;;;30.52;;
68315;SDS011;55508;54.368;18.406;2023-04-24T05:32:00;51.90;;;30.88;;
68315;SDS011;55508;54.368;18.406;2023-04-24T05:34:29;51.10;;;31.20;;
68315;SDS011;55508;54.368;18.406;2023-04-24T05:36:56;45.33;;;29.00;;
68315;SDS011;55508;54.368;18.406;2023-04-24T05:39:24;48.00;;;30.05;;
68315;SDS011;55508;54.368;18.406;2023-04-24T05:41:52;47.78;;;30.27;;
68315;SDS011;55508;54.368;18.406;2023-04-24T05:44:19;49.58;;;29.90;;
68315;SDS011;55508;54.368;18.406;2023-04-24T05:46:47;44.42;;;29.58;;
68315;SDS011;55508;54.368;18.406;2023-04-24T05:49:14;43.70;;;29.00;;
68315;SDS011;55508;54.368;18.406;2023-04-24T05:51:42;43.42;;;29.33;;
68315;SDS011;55508;54.368;18.406;2023-04-24T05:54:09;45.00;;;28.77;;
68315;SDS011;55508;54.368;18.406;2023-04-24T05:56:39;40.05;;;26.52;;
68315;SDS011;55508;54.368;18.406;2023-04-24T05:59:12;35.72;;;24.95;;
68315;SDS011;55508;54.368;18.406;2023-04-24T06:01:39;37.78;;;26.33;;
68315;SDS011;55508;54.368;18.406;2023-04-24T06:04:14;39.45;;;26.23;;
68315;SDS011;55508;54.368;18.406;2023-04-24T06:06:42;35.58;;;25.63;;
68315;SDS011;55508;54.368;18.406;2023-04-24T06:09:09;34.05;;;25.40;;
68315;SDS011;55508;54.368;18.406;2023-04-24T06:11:36;36.38;;;26.58;;
68315;SDS011;55508;54.368;18.406;2023-04-24T06:14:04;35.72;;;26.30;;
68315;SDS011;55508;54.368;18.406;2023-04-24T06:16:51;32.58;;;24.33;;
68315;SDS011;55508;54.368;18.406;2023-04-24T06:19:30;31.20;;;23.88;;
68315;SDS011;55508;54.368;18.406;2023-04-24T06:21:58;31.13;;;24.35;;
68315;SDS011;55508;54.368;18.406;2023-04-24T06:24:28;31.10;;;23.88;;
68315;SDS011;55508;54.368;18.406;2023-04-24T06:26:57;32.47;;;25.02;;
68315;SDS011;55508;54.368;18.406;2023-04-24T06:29:25;31.27;;;24.73;;
68315;SDS011;55508;54.368;18.406;2023-04-24T06:31:52;29.52;;;22.77;;
68315;SDS011;55508;54.368;18.406;2023-04-24T06:34:19;28.23;;;23.05;;
68315;SDS011;55508;54.368;18.406;2023-04-24T06:36:46;31.00;;;22.63;;
68315;SDS011;55508;54.368;18.406;2023-04-24T06:39:13;25.98;;;22.35;;
68315;SDS011;55508;54.368;18.406;2023-04-24T06:41:41;26.55;;;22.23;;
68315;SDS011;55508;54.368;18.406;2023-04-24T06:44:17;28.00;;;23.55;;
68315;SDS011;55508;54.368;18.406;2023-04-24T06:46:44;28.65;;;23.38;;
68315;SDS011;55508;54.368;18.406;2023-04-24T06:49:11;32.40;;;24.05;;
68315;SDS011;55508;54.368;18.406;2023-04-24T06:51:38;34.85;;;25.52;;
68315;SDS011;55508;54.368;18.406;2023-04-24T06:54:05;33.35;;;24.75;;
68315;SDS011;55508;54.368;18.406;2023-04-24T06:56:32;30.63;;;24.15;;
68315;SDS011;55508;54.368;18.406;2023-04-24T06:59:00;36.05;;;25.33;;
68315;SDS011;55508;54.368;18.406;2023-04-24T07:01:27;31.15;;;24.13;;
68315;SDS011;55508;54.368;18.406;2023-04-24T07:03:54;33.70;;;24.92;;
68315;SDS011;55508;54.368;18.406;2023-04-24T07:06:22;32.45;;;24.48;;
68315;SDS011;55508;54.368;18.406;2023-04-24T07:08:50;29.77;;;24.80;;
68315;SDS011;55508;54.368;18.406;2023-04-24T07:11:17;30.27;;;23.55;;
68315;SDS011;55508;54.368;18.406;2023-04-24T07:13:44;27.75;;;24.67;;
68315;SDS011;55508;54.368;18.406;2023-04-24T07:16:11;26.90;;;23.48;;
68315;SDS011;55508;54.368;18.406;2023-04-24T07:18:38;30.63;;;22.05;;
68315;SDS011;55508;54.368;18.406;2023-04-24T07:21:06;26.17;;;21.92;;
68315;SDS011;55508;54.368;18.406;2023-04-24T07:23:33;31.80;;;22.25;;
68315;SDS011;55508;54.368;18.406;2023-04-24T07:26:00;24.25;;;21.25;;
68315;SDS011;55508;54.368;18.406;2023-04-24T07:28:27;28.38;;;21.98;;
68315;SDS011;55508;54.368;18.406;2023-04-24T07:30:57;27.25;;;22.35;;
68315;SDS011;55508;54.368;18.406;2023-04-24T07:33:25;28.55;;;23.15;;
68315;SDS011;55508;54.368;18.406;2023-04-24T07:35:52;35.75;;;24.13;;
68315;SDS011;55508;54.368;18.406;2023-04-24T07:38:19;28.33;;;23.25;;
68315;SDS011;55508;54.368;18.406;2023-04-24T07:40:48;37.88;;;24.20;;
68315;SDS011;55508;54.368;18.406;2023-04-24T07:43:15;30.15;;;23.55;;
68315;SDS011;55508;54.368;18.406;2023-04-24T07:45:42;34.67;;;25.67;;
68315;SDS011;55508;54.368;18.406;2023-04-24T07:48:09;32.78;;;24.83;;
68315;SDS011;55508;54.368;18.406;2023-04-24T07:50:37;36.35;;;24.35;;
68315;SDS011;55508;54.368;18.406;2023-04-24T07:53:04;30.10;;;24.15;;
68315;SDS011;55508;54.368;18.406;2023-04-24T07:55:31;35.08;;;25.25;;
68315;SDS011;55508;54.368;18.406;2023-04-24T07:57:58;36.95;;;25.05;;
68315;SDS011;55508;54.368;18.406;2023-04-24T08:00:24;32.28;;;23.55;;
68315;SDS011;55508;54.368;18.406;2023-04-24T08:02:51;31.98;;;23.88;;
68315;SDS011;55508;54.368;18.406;2023-04-24T08:05:18;30.80;;;24.95;;
68315;SDS011;55508;54.368;18.406;2023-04-24T08:07:46;28.10;;;24.23;;
68315;SDS011;55508;54.368;18.406;2023-04-24T08:10:15;31.15;;;26.13;;
68315;SDS011;55508;54.368;18.406;2023-04-24T08:12:42;31.30;;;25.20;;
68315;SDS011;55508;54.368;18.406;2023-04-24T08:15:09;28.08;;;23.02;;
68315;SDS011;55508;54.368;18.406;2023-04-24T08:17:36;26.30;;;23.42;;
68315;SDS011;55508;54.368;18.406;2023-04-24T08:20:03;31.88;;;25.17;;
68315;SDS011;55508;54.368;18.406;2023-04-24T08:22:31;26.00;;;23.33;;
68315;SDS011;55508;54.368;18.406;2023-04-24T08:24:59;25.90;;;23.20;;
68315;SDS011;55508;54.368;18.406;2023-04-24T08:27:26;30.80;;;25.45;;
68315;SDS011;55508;54.368;18.406;2023-04-24T08:29:54;27.27;;;24.40;;
68315;SDS011;55508;54.368;18.406;2023-04-24T08:32:20;29.55;;;24.60;;
68315;SDS011;55508;54.368;18.406;2023-04-24T08:34:47;30.10;;;24.23;;
68315;SDS011;55508;54.368;18.406;2023-04-24T08:37:15;30.13;;;24.92;;
68315;SDS011;55508;54.368;18.406;2023-04-24T08:39:42;28.85;;;25.67;;
68315;SDS011;55508;54.368;18.406;2023-04-24T08:42:10;29.13;;;26.02;;
68315;SDS011;55508;54.368;18.406;2023-04-24T08:44:41;30.05;;;26.05;;
68315;SDS011;55508;54.368;18.406;2023-04-24T08:47:08;30.08;;;25.95;;
68315;SDS011;55508;54.368;18.406;2023-04-24T08:49:35;26.30;;;23.50;;
68315;SDS011;55508;54.368;18.406;2023-04-24T08:52:03;27.77;;;24.13;;
68315;SDS011;55508;54.368;18.406;2023-04-24T08:54:34;31.02;;;25.40;;
68315;SDS011;55508;54.368;18.406;2023-04-24T08:57:02;29.20;;;24.40;;
68315;SDS011;55508;54.368;18.406;2023-04-24T08:59:30;28.98;;;24.50;;
68315;SDS011;55508;54.368;18.406;2023-04-24T09:01:58;28.42;;;25.40;;
68315;SDS011;55508;54.368;18.406;2023-04-24T09:04:26;27.17;;;23.98;;
68315;SDS011;55508;54.368;18.406;2023-04-24T09:06:55;26.80;;;23.98;;
68315;SDS011;55508;54.368;18.406;2023-04-24T09:09:24;25.48;;;22.77;;
68315;SDS011;55508;54.368;18.406;2023-04-24T09:11:51;27.67;;;24.60;;
68315;SDS011;55508;54.368;18.406;2023-04-24T09:14:21;27.58;;;24.48;;
68315;SDS011;55508;54.368;18.406;2023-04-24T09:16:50;27.50;;;24.38;;
68315;SDS011;55508;54.368;18.406;2023-04-24T09:19:17;26.15;;;23.33;;
68315;SDS011;55508;54.368;18.406;2023-04-24T09:21:47;26.75;;;23.90;;
68315;SDS011;55508;54.368;18.406;2023-04-24T09:24:15;28.05;;;25.05;;
68315;SDS011;55508;54.368;18.406;2023-04-24T09:26:49;26.27;;;23.52;;
68315;SDS011;55508;54.368;18.406;2023-04-24T09:29:24;25.25;;;22.63;;
68315;SDS011;55508;54.368;18.406;2023-04-24T09:31:51;25.42;;;22.75;;
68315;SDS011;55508;54.368;18.406;2023-04-24T09:34:21;26.88;;;23.98;;
68315;SDS011;55508;54.368;18.406;2023-04-24T09:39:17;27.83;;;24.92;;
68315;SDS011;55508;54.368;18.406;2023-04-24T09:41:47;28.55;;;23.58;;
68315;SDS011;55508;54.368;18.406;2023-04-24T09:44:19;26.58;;;23.67;;
68315;SDS011;55508;54.368;18.406;2023-04-24T09:46:51;27.35;;;24.20;;
68315;SDS011;55508;54.368;18.406;2023-04-24T09:49:25;25.80;;;22.75;;
68315;SDS011;55508;54.368;18.406;2023-04-24T09:52:02;25.00;;;22.50;;
68315;SDS011;55508;54.368;18.406;2023-04-24T09:54:33;24.10;;;21.50;;
68315;SDS011;55508;54.368;18.406;2023-04-24T09:57:03;25.65;;;23.10;;
68315;SDS011;55508;54.368;18.406;2023-04-24T09:59:30;26.35;;;23.55;;
68315;SDS011;55508;54.368;18.406;2023-04-24T10:01:57;26.15;;;23.10;;
68315;SDS011;55508;54.368;18.406;2023-04-24T10:04:26;25.80;;;22.55;;
68315;SDS011;55508;54.368;18.406;2023-04-24T10:06:55;25.85;;;22.58;;
68315;SDS011;55508;54.368;18.406;2023-04-24T10:09:26;22.75;;;20.35;;
68315;SDS011;55508;54.368;18.406;2023-04-24T10:11:53;23.48;;;21.05;;
68315;SDS011;55508;54.368;18.406;2023-04-24T10:14:22;24.17;;;21.75;;
68315;SDS011;55508;54.368;18.406;2023-04-24T10:16:50;23.42;;;20.90;;
68315;SDS011;55508;54.368;18.406;2023-04-24T10:19:20;22.27;;;20.05;;
68315;SDS011;55508;54.368;18.406;2023-04-24T10:21:47;23.17;;;20.92;;
68315;SDS011;55508;54.368;18.406;2023-04-24T10:24:14;25.55;;;20.63;;
68315;SDS011;55508;54.368;18.406;2023-04-24T10:26:47;21.20;;;19.17;;
68315;SDS011;55508;54.368;18.406;2023-04-24T10:29:18;21.10;;;18.90;;
68315;SDS011;55508;54.368;18.406;2023-04-24T10:31:45;21.05;;;18.83;;
68315;SDS011;55508;54.368;18.406;2023-04-24T10:34:14;21.48;;;18.02;;
68315;SDS011;55508;54.368;18.406;2023-04-24T10:36:45;19.85;;;17.95;;
68315;SDS011;55508;54.368;18.406;2023-04-24T10:39:14;20.13;;;18.15;;
68315;SDS011;55508;54.368;18.406;2023-04-24T10:41:42;20.02;;;18.05;;
68315;SDS011;55508;54.368;18.406;2023-04-24T10:44:15;19.90;;;17.75;;
68315;SDS011;55508;54.368;18.406;2023-04-24T10:46:43;19.30;;;17.17;;
68315;SDS011;55508;54.368;18.406;2023-04-24T10:49:11;18.67;;;16.73;;
68315;SDS011;55508;54.368;18.406;2023-04-24T10:51:48;19.17;;;17.38;;
68315;SDS011;55508;54.368;18.406;2023-04-24T10:54:26;17.05;;;15.43;;
68315;SDS011;55508;54.368;18.406;2023-04-24T10:57:27;15.93;;;14.32;;
68315;SDS011;55508;54.368;18.406;2023-04-24T11:02:47;16.67;;;14.88;;
68315;SDS011;55508;54.368;18.406;2023-04-24T11:05:17;17.42;;;15.63;;
68315;SDS011;55508;54.368;18.406;2023-04-24T11:10:46;15.70;;;14.23;;
68315;SDS011;55508;54.368;18.406;2023-04-24T11:13:14;16.35;;;14.65;;
68315;SDS011;55508;54.368;18.406;2023-04-24T11:18:42;14.73;;;13.20;;
68315;SDS011;55508;54.368;18.406;2023-04-24T11:21:17;14.32;;;12.95;;
68315;SDS011;55508;54.368;18.406;2023-04-24T11:23:45;14.18;;;12.82;;
68315;SDS011;55508;54.368;18.406;2023-04-24T11:26:13;14.00;;;12.73;;
68315;SDS011;55508;54.368;18.406;2023-04-24T11:28:45;14.43;;;13.30;;
68315;SDS011;55508;54.368;18.406;2023-04-24T11:34:08;15.60;;;13.48;;
68315;SDS011;55508;54.368;18.406;2023-04-24T11:36:36;11.85;;;10.45;;
68315;SDS011;55508;54.368;18.406;2023-04-24T11:39:04;10.38;;;9.48;;
68315;SDS011;55508;54.368;18.406;2023-04-24T11:41:31;13.02;;;10.05;;
68315;SDS011;55508;54.368;18.406;2023-04-24T11:43:59;10.63;;;9.77;;
68315;SDS011;55508;54.368;18.406;2023-04-24T11:46:27;10.02;;;9.15;;
68315;SDS011;55508;54.368;18.406;2023-04-24T11:48:56;10.38;;;9.57;;
68315;SDS011;55508;54.368;18.406;2023-04-24T11:51:23;10.27;;;9.38;;
68315;SDS011;55508;54.368;18.406;2023-04-24T11:53:58;8.65;;;7.93;;
68315;SDS011;55508;54.368;18.406;2023-04-24T11:56:30;7.95;;;6.53;;
68315;SDS011;55508;54.368;18.406;2023-04-24T11:58:57;7.90;;;6.45;;
68315;SDS011;55508;54.368;18.406;2023-04-24T12:01:24;6.15;;;5.57;;
68315;SDS011;55508;54.368;18.406;2023-04-24T12:03:51;7.22;;;5.30;;
68315;SDS011;55508;54.368;18.406;2023-04-24T12:06:26;5.65;;;5.15;;
68315;SDS011;55508;54.368;18.406;2023-04-24T12:08:53;5.38;;;4.97;;
68315;SDS011;55508;54.368;18.406;2023-04-24T12:11:30;8.82;;;5.18;;
68315;SDS011;55508;54.368;18.406;2023-04-24T12:13:57;6.10;;;5.22;;
68315;SDS011;55508;54.368;18.406;2023-04-24T12:16:25;5.15;;;4.72;;
68315;SDS011;55508;54.368;18.406;2023-04-24T12:18:53;5.50;;;4.45;;
68315;SDS011;55508;54.368;18.406;2023-04-24T12:21:20;4.55;;;4.15;;
68315;SDS011;55508;54.368;18.406;2023-04-24T12:23:49;5.15;;;4.55;;
68315;SDS011;55508;54.368;18.406;2023-04-24T12:26:17;4.30;;;4.00;;
68315;SDS011;55508;54.368;18.406;2023-04-24T12:28:46;5.45;;;3.97;;
68315;SDS011;55508;54.368;18.406;2023-04-24T12:31:18;5.93;;;4.53;;
68315;SDS011;55508;54.368;18.406;2023-04-24T12:33:47;5.43;;;5.03;;
68315;SDS011;55508;54.368;18.406;2023-04-24T12:36:14;4.93;;;4.53;;
68315;SDS011;55508;54.368;18.406;2023-04-24T12:38:43;4.90;;;4.50;;
68315;SDS011;55508;54.368;18.406;2023-04-24T12:41:13;4.40;;;4.07;;
68315;SDS011;55508;54.368;18.406;2023-04-24T12:46:27;4.10;;;3.70;;
68315;SDS011;55508;54.368;18.406;2023-04-24T12:48:54;6.55;;;4.10;;
68315;SDS011;55508;54.368;18.406;2023-04-24T12:51:21;4.22;;;3.70;;
68315;SDS011;55508;54.368;18.406;2023-04-24T12:53:49;5.20;;;3.80;;
68315;SDS011;55508;54.368;18.406;2023-04-24T12:56:16;3.63;;;3.28;;
68315;SDS011;55508;54.368;18.406;2023-04-24T12:58:43;3.88;;;3.28;;
68315;SDS011;55508;54.368;18.406;2023-04-24T13:01:10;5.25;;;2.85;;
68315;SDS011;55508;54.368;18.406;2023-04-24T13:03:37;4.40;;;3.22;;
68315;SDS011;55508;54.368;18.406;2023-04-24T13:06:04;7.72;;;3.33;;
68315;SDS011;55508;54.368;18.406;2023-04-24T13:08:31;3.50;;;3.17;;
68315;SDS011;55508;54.368;18.406;2023-04-24T13:10:58;4.13;;;3.38;;
68315;SDS011;55508;54.368;18.406;2023-04-24T13:13:25;3.70;;;3.40;;
68315;SDS011;55508;54.368;18.406;2023-04-24T13:15:52;3.92;;;3.40;;
68315;SDS011;55508;54.368;18.406;2023-04-24T13:18:18;4.25;;;3.03;;
68315;SDS011;55508;54.368;18.406;2023-04-24T13:20:45;5.97;;;3.35;;
68315;SDS011;55508;54.368;18.406;2023-04-24T13:23:13;4.55;;;3.30;;
68315;SDS011;55508;54.368;18.406;2023-04-24T13:25:41;7.07;;;3.15;;
68315;SDS011;55508;54.368;18.406;2023-04-24T13:28:08;5.72;;;3.67;;
68315;SDS011;55508;54.368;18.406;2023-04-24T13:30:35;3.53;;;3.33;;
68315;SDS011;55508;54.368;18.406;2023-04-24T13:33:03;3.38;;;3.17;;
68315;SDS011;55508;54.368;18.406;2023-04-24T13:35:29;3.97;;;3.67;;
68315;SDS011;55508;54.368;18.406;2023-04-24T13:37:57;6.22;;;3.40;;
68315;SDS011;55508;54.368;18.406;2023-04-24T13:40:24;3.60;;;2.95;;
68315;SDS011;55508;54.368;18.406;2023-04-24T13:42:51;3.42;;;3.22;;
68315;SDS011;55508;54.368;18.406;2023-04-24T13:45:18;3.38;;;3.10;;
68315;SDS011;55508;54.368;18.406;2023-04-24T13:47:51;3.47;;;3.17;;
68315;SDS011;55508;54.368;18.406;2023-04-24T13:50:20;10.68;;;6.90;;
68315;SDS011;55508;54.368;18.406;2023-04-24T13:52:47;21.42;;;10.88;;
68315;SDS011;55508;54.368;18.406;2023-04-24T13:55:14;9.35;;;7.30;;
68315;SDS011;55508;54.368;18.406;2023-04-24T13:57:41;20.42;;;10.57;;
68315;SDS011;55508;54.368;18.406;2023-04-24T14:00:08;4.80;;;3.60;;
68315;SDS011;55508;54.368;18.406;2023-04-24T14:02:37;3.83;;;3.47;;
68315;SDS011;55508;54.368;18.406;2023-04-24T14:05:04;4.15;;;3.50;;
68315;SDS011;55508;54.368;18.406;2023-04-24T14:07:33;4.53;;;3.70;;
68315;SDS011;55508;54.368;18.406;2023-04-24T14:10:00;5.65;;;3.13;;
68315;SDS011;55508;54.368;18.406;2023-04-24T14:12:27;4.15;;;3.40;;
68315;SDS011;55508;54.368;18.406;2023-04-24T14:14:54;4.13;;;3.72;;
68315;SDS011;55508;54.368;18.406;2023-04-24T14:17:21;3.78;;;3.50;;
68315;SDS011;55508;54.368;18.406;2023-04-24T14:19:47;9.43;;;3.65;;
68315;SDS011;55508;54.368;18.406;2023-04-24T14:22:15;6.47;;;4.15;;
68315;SDS011;55508;54.368;18.406;2023-04-24T14:24:41;4.75;;;4.35;;
68315;SDS011;55508;54.368;18.406;2023-04-24T14:27:08;15.35;;;6.68;;
68315;SDS011;55508;54.368;18.406;2023-04-24T14:29:35;7.30;;;4.20;;
68315;SDS011;55508;54.368;18.406;2023-04-24T14:32:02;6.13;;;4.88;;
68315;SDS011;55508;54.368;18.406;2023-04-24T14:34:29;5.75;;;5.15;;
68315;SDS011;55508;54.368;18.406;2023-04-24T14:36:56;5.10;;;4.65;;
68315;SDS011;55508;54.368;18.406;2023-04-24T14:39:25;5.25;;;4.68;;